createdAt,value
2017-11-14T00:00:30.116Z,13.13
2017-11-14T00:02:58.244Z,10.10
2017-11-14T00:05:27.133Z,13.13
2017-11-14T00:07:56.042Z,10.85
2017-11-14T00:10:24.916Z,11.60
2017-11-14T00:12:53.805Z,11.80
2017-11-14T00:15:22.734Z,10.15
2017-11-14T00:17:50.852Z,11.30
2017-11-14T00:20:18.978Z,10.43
2017-11-14T00:22:47.092Z,9.93
2017-11-14T00:25:15.214Z,10.40
2017-11-14T00:27:43.357Z,11.23
2017-11-14T00:30:11.456Z,10.40
2017-11-14T00:32:39.644Z,10.57
2017-11-14T00:35:07.767Z,9.68
2017-11-14T00:37:35.907Z,12.87
2017-11-14T00:40:04.008Z,13.50
2017-11-14T00:42:32.137Z,10.18
2017-11-14T00:45:00.260Z,9.70
2017-11-14T00:47:28.379Z,9.25
2017-11-14T00:49:56.502Z,10.38
2017-11-14T00:52:25.397Z,9.87
2017-11-14T00:54:54.338Z,13.05
2017-11-14T00:57:22.463Z,9.77
2017-11-14T00:59:51.350Z,16.02
2017-11-14T01:02:20.248Z,9.13
2017-11-14T01:04:49.128Z,12.32
2017-11-14T01:07:18.031Z,10.40
2017-11-14T01:09:46.917Z,12.20
2017-11-14T01:12:15.806Z,11.77
2017-11-14T01:14:44.713Z,10.52
2017-11-14T01:17:12.854Z,11.32
2017-11-14T01:19:41.103Z,9.30
2017-11-14T01:22:09.292Z,9.70
2017-11-14T01:24:37.423Z,11.68
2017-11-14T01:27:05.539Z,9.13
2017-11-14T01:29:33.658Z,12.05
2017-11-14T01:32:01.784Z,13.68
2017-11-14T01:34:30.004Z,8.38
2017-11-14T01:36:58.154Z,12.10
2017-11-14T01:39:26.842Z,12.68
2017-11-14T01:41:54.960Z,11.25
2017-11-14T01:44:23.093Z,11.20
2017-11-14T01:46:51.205Z,11.32
2017-11-14T01:49:19.344Z,12.63
2017-11-14T01:51:47.448Z,10.90
2017-11-14T01:54:15.576Z,13.30
2017-11-14T01:56:44.446Z,11.43
2017-11-14T01:59:13.336Z,11.52
2017-11-14T02:01:41.456Z,14.97
2017-11-14T02:04:09.599Z,17.00
2017-11-14T02:06:38.484Z,12.90
2017-11-14T02:09:07.392Z,15.23
2017-11-14T02:11:35.512Z,12.03
2017-11-14T02:14:03.656Z,13.57
2017-11-14T02:16:31.769Z,13.23
2017-11-14T02:18:59.913Z,13.25
2017-11-14T02:21:28.041Z,10.37
2017-11-14T02:23:56.163Z,14.27
2017-11-14T02:26:25.049Z,10.73
2017-11-14T02:28:53.195Z,14.82
2017-11-14T02:31:21.312Z,10.57
2017-11-14T02:33:49.455Z,12.02
2017-11-14T02:36:17.587Z,14.30
2017-11-14T02:38:46.473Z,10.82
2017-11-14T02:41:15.389Z,10.88
2017-11-14T02:43:43.508Z,11.80
2017-11-14T02:46:11.632Z,12.10
2017-11-14T02:48:39.767Z,13.02
2017-11-14T02:51:07.900Z,13.48
2017-11-14T02:53:36.055Z,10.10
2017-11-14T02:56:04.167Z,9.90
2017-11-14T02:58:32.311Z,14.27
2017-11-14T03:01:00.445Z,15.37
2017-11-14T03:03:29.344Z,10.60
2017-11-14T03:05:57.503Z,19.37
2017-11-14T03:08:26.390Z,16.12
2017-11-14T03:10:55.294Z,12.23
2017-11-14T03:13:23.406Z,14.05
2017-11-14T03:15:51.558Z,12.02
2017-11-14T03:18:19.680Z,10.45
2017-11-14T03:20:47.821Z,10.80
2017-11-14T03:23:15.942Z,11.60
2017-11-14T03:25:44.834Z,14.17
2017-11-14T03:28:13.722Z,10.02
2017-11-14T03:30:42.649Z,13.13
2017-11-14T03:33:10.777Z,13.30
2017-11-14T03:35:39.676Z,12.65
2017-11-14T03:38:08.579Z,11.02
2017-11-14T03:40:37.490Z,14.07
2017-11-14T03:43:05.606Z,12.68
2017-11-14T03:45:33.723Z,10.93
2017-11-14T03:48:01.840Z,12.15
2017-11-14T03:50:30.025Z,11.00
2017-11-14T03:52:58.129Z,10.52
2017-11-14T03:55:26.305Z,12.23
2017-11-14T03:57:54.412Z,11.00
2017-11-14T04:00:22.551Z,11.63
2017-11-14T04:02:50.676Z,10.32
2017-11-14T04:05:19.104Z,11.52
2017-11-14T04:07:47.218Z,11.25
2017-11-14T04:10:15.364Z,13.63
2017-11-14T04:12:43.494Z,13.10
2017-11-14T04:15:12.397Z,15.30
2017-11-14T04:17:41.271Z,14.93
2017-11-14T04:20:10.171Z,11.93
2017-11-14T04:22:38.310Z,13.03
2017-11-14T04:25:06.456Z,11.87
2017-11-14T04:27:34.580Z,15.15
2017-11-14T04:30:03.539Z,12.05
2017-11-14T04:32:31.729Z,12.73
2017-11-14T04:35:00.674Z,17.10
2017-11-14T04:37:28.788Z,14.07
2017-11-14T04:39:56.916Z,16.90
2017-11-14T04:42:25.043Z,14.55
2017-11-14T04:44:53.161Z,10.95
2017-11-14T04:47:21.293Z,15.85
2017-11-14T04:49:49.412Z,13.82
2017-11-14T04:52:17.566Z,19.00
2017-11-14T04:54:46.446Z,16.93
2017-11-14T04:57:14.606Z,15.82
2017-11-14T04:59:43.497Z,16.00
2017-11-14T05:02:12.398Z,13.40
2017-11-14T05:04:41.273Z,13.95
2017-11-14T05:07:10.164Z,19.33
2017-11-14T05:09:39.058Z,15.85
2017-11-14T05:12:07.967Z,18.77
2017-11-14T05:14:36.120Z,15.27
2017-11-14T05:17:05.016Z,18.33
2017-11-14T05:19:33.904Z,16.35
2017-11-14T05:22:02.809Z,12.77
2017-11-14T05:24:30.932Z,13.20
2017-11-14T05:26:59.072Z,15.27
2017-11-14T05:29:27.205Z,13.48
2017-11-14T05:31:56.098Z,11.02
2017-11-14T05:34:24.998Z,17.62
2017-11-14T05:36:53.904Z,10.63
2017-11-14T05:39:22.033Z,11.98
2017-11-14T05:41:50.172Z,18.15
2017-11-14T05:44:18.326Z,14.25
2017-11-14T05:46:46.459Z,13.57
2017-11-14T05:49:15.368Z,13.80
2017-11-14T05:51:44.279Z,12.00
2017-11-14T05:54:12.393Z,9.85
2017-11-14T05:56:40.532Z,11.83
2017-11-14T05:59:08.659Z,15.55
2017-11-14T06:01:37.563Z,15.73
2017-11-14T06:04:05.714Z,11.85
2017-11-14T06:06:33.837Z,19.52
2017-11-14T06:09:01.969Z,18.45
2017-11-14T06:11:30.863Z,17.53
2017-11-14T06:13:59.005Z,15.38
2017-11-14T06:16:27.135Z,18.60
2017-11-14T06:18:55.282Z,16.10
2017-11-14T06:21:23.417Z,18.67
2017-11-14T06:23:51.553Z,21.00
2017-11-14T06:26:19.689Z,17.42
2017-11-14T06:28:48.610Z,20.37
2017-11-14T06:31:16.744Z,18.92
2017-11-14T06:33:45.645Z,14.63
2017-11-14T06:36:14.539Z,20.33
2017-11-14T06:38:43.443Z,14.43
2017-11-14T06:41:11.569Z,15.77
2017-11-14T06:43:39.714Z,16.55
2017-11-14T06:46:07.860Z,15.15
2017-11-14T06:48:36.764Z,13.43
2017-11-14T06:51:04.883Z,17.65
2017-11-14T06:53:33.015Z,12.40
2017-11-14T06:56:01.140Z,11.30
2017-11-14T06:58:29.278Z,13.90
2017-11-14T07:00:57.403Z,16.27
2017-11-14T07:03:25.530Z,16.48
2017-11-14T07:05:53.660Z,14.65
2017-11-14T07:08:21.820Z,14.10
2017-11-14T07:10:50.708Z,14.97
2017-11-14T07:13:19.637Z,13.98
2017-11-14T07:15:47.791Z,16.70
2017-11-14T07:18:16.677Z,17.10
2017-11-14T07:20:44.794Z,14.57
2017-11-14T07:23:12.936Z,15.80
2017-11-14T07:25:41.060Z,14.30
2017-11-14T07:28:09.956Z,16.15
2017-11-14T07:30:38.852Z,14.77
2017-11-14T07:33:07.753Z,14.80
2017-11-14T07:35:35.880Z,15.43
2017-11-14T07:38:04.010Z,15.38
2017-11-14T07:40:32.140Z,14.43
2017-11-14T07:43:00.251Z,16.30
2017-11-14T07:45:28.388Z,16.15
2017-11-14T07:47:56.519Z,20.05
2017-11-14T07:50:24.666Z,16.90
2017-11-14T07:52:52.776Z,22.65
2017-11-14T07:55:20.935Z,20.40
2017-11-14T07:57:49.069Z,18.85
2017-11-14T08:00:17.973Z,14.18
2017-11-14T08:02:46.098Z,14.40
2017-11-14T08:07:33.577Z,15.23
2017-11-14T08:10:01.703Z,14.80
2017-11-14T08:12:29.823Z,23.95
2017-11-14T08:14:57.972Z,17.65
2017-11-14T08:17:26.140Z,16.52
2017-11-14T08:19:54.264Z,29.48
2017-11-14T08:22:22.401Z,21.43
2017-11-14T08:24:51.301Z,23.00
2017-11-14T08:27:19.443Z,22.37
2017-11-14T08:29:47.562Z,20.62
2017-11-14T08:32:15.684Z,20.10
2017-11-14T08:34:43.823Z,23.42
2017-11-14T08:37:11.957Z,16.65
2017-11-14T08:39:40.865Z,21.17
2017-11-14T08:42:08.990Z,20.60
2017-11-14T08:44:37.128Z,18.90
2017-11-14T08:47:05.260Z,23.05
2017-11-14T08:49:34.163Z,19.30
2017-11-14T08:52:02.285Z,21.30
2017-11-14T08:54:30.435Z,18.08
2017-11-14T08:56:58.556Z,27.20
2017-11-14T08:59:27.449Z,20.92
2017-11-14T09:01:56.341Z,26.30
2017-11-14T09:04:25.246Z,17.42
2017-11-14T09:06:53.388Z,16.10
2017-11-14T09:09:21.516Z,19.10
2017-11-14T09:11:50.406Z,16.50
2017-11-14T09:14:18.547Z,23.52
2017-11-14T09:16:46.668Z,16.77
2017-11-14T09:19:14.823Z,18.00
2017-11-14T09:21:42.964Z,18.12
2017-11-14T09:24:11.877Z,15.70
2017-11-14T09:26:39.987Z,17.30
2017-11-14T09:29:08.157Z,16.12
2017-11-14T09:31:36.293Z,15.75
2017-11-14T09:34:04.408Z,17.73
2017-11-14T09:36:32.574Z,17.90
2017-11-14T09:39:00.711Z,16.62
2017-11-14T09:41:28.875Z,21.37
2017-11-14T09:43:57.019Z,15.57
2017-11-14T09:46:25.922Z,17.37
2017-11-14T09:48:54.812Z,16.45
2017-11-14T09:51:22.930Z,18.63
2017-11-14T09:53:51.070Z,19.50
2017-11-14T09:56:19.193Z,17.37
2017-11-14T09:58:47.338Z,17.25
2017-11-14T10:01:15.475Z,16.03
2017-11-14T10:03:43.611Z,18.12
2017-11-14T10:06:11.754Z,12.82
2017-11-14T10:08:39.877Z,17.33
2017-11-14T10:11:08.782Z,15.30
2017-11-14T10:13:36.915Z,20.67
2017-11-14T10:16:05.051Z,19.30
2017-11-14T10:18:33.186Z,20.88
2017-11-14T10:21:02.080Z,17.50
2017-11-14T10:23:30.978Z,17.30
2017-11-14T10:25:59.112Z,21.20
2017-11-14T10:28:27.280Z,22.27
2017-11-14T10:30:56.382Z,18.73
2017-11-14T10:33:24.522Z,22.67
2017-11-14T10:35:52.647Z,21.67
2017-11-14T10:38:21.543Z,21.27
2017-11-14T10:40:50.429Z,19.17
2017-11-14T10:43:18.592Z,22.35
2017-11-14T10:45:47.474Z,25.77
2017-11-14T10:48:16.393Z,22.42
2017-11-14T10:50:44.539Z,22.90
2017-11-14T10:53:13.467Z,20.17
2017-11-14T10:55:41.620Z,18.93
2017-11-14T10:58:10.509Z,20.37
2017-11-14T11:00:39.396Z,21.43
2017-11-14T11:03:08.287Z,19.92
2017-11-14T11:05:37.216Z,21.67
2017-11-14T11:08:05.338Z,19.42
2017-11-14T11:10:34.239Z,20.67
2017-11-14T11:13:03.157Z,19.75
2017-11-14T11:15:31.268Z,22.35
2017-11-14T11:17:59.399Z,21.23
2017-11-14T11:20:27.519Z,22.25
2017-11-14T11:22:55.656Z,22.60
2017-11-14T11:25:23.785Z,21.60
2017-11-14T11:27:52.681Z,25.50
2017-11-14T11:30:21.571Z,23.83
2017-11-14T11:32:49.705Z,21.40
2017-11-14T11:35:19.509Z,17.90
2017-11-14T11:37:47.668Z,19.23
2017-11-14T11:40:15.802Z,17.12
2017-11-14T11:42:44.706Z,19.73
2017-11-14T11:45:12.836Z,20.80
2017-11-14T11:47:40.984Z,17.10
2017-11-14T11:50:09.881Z,20.15
2017-11-14T11:52:38.013Z,23.53
2017-11-14T11:55:06.140Z,24.63
2017-11-14T11:57:34.274Z,24.37
2017-11-14T12:00:02.403Z,23.15
2017-11-14T12:02:31.297Z,20.80
2017-11-14T12:05:00.197Z,22.50
2017-11-14T12:07:29.086Z,22.57
2017-11-14T12:09:57.228Z,18.67
2017-11-14T12:12:25.346Z,17.87
2017-11-14T12:14:53.499Z,17.00
2017-11-14T12:17:22.370Z,16.27
2017-11-14T12:19:51.274Z,15.57
2017-11-14T12:22:20.179Z,17.93
2017-11-14T12:24:49.062Z,17.43
2017-11-14T12:27:17.252Z,15.52
2017-11-14T12:29:45.382Z,16.23
2017-11-14T12:32:13.496Z,15.10
2017-11-14T12:34:41.651Z,13.50
2017-11-14T12:37:09.774Z,14.63
2017-11-14T12:39:37.984Z,16.23
2017-11-14T12:42:06.887Z,17.10
2017-11-14T12:44:35.779Z,17.37
2017-11-14T12:47:03.932Z,17.67
2017-11-14T12:49:32.828Z,15.75
2017-11-14T12:52:01.730Z,18.25
2017-11-14T12:54:29.891Z,17.00
2017-11-14T12:56:58.008Z,16.50
2017-11-14T12:59:26.190Z,19.42
2017-11-14T13:01:54.338Z,14.57
2017-11-14T13:04:22.484Z,17.50
2017-11-14T13:06:51.364Z,19.60
2017-11-14T13:09:20.291Z,16.40
2017-11-14T13:11:48.409Z,16.67
2017-11-14T13:14:17.675Z,16.40
2017-11-14T13:16:45.830Z,15.23
2017-11-14T13:19:13.942Z,14.02
2017-11-14T13:21:42.076Z,15.35
2017-11-14T13:24:10.225Z,16.77
2017-11-14T13:26:39.112Z,13.70
2017-11-14T13:29:08.016Z,16.17
2017-11-14T13:31:36.133Z,15.52
2017-11-14T13:34:04.275Z,17.95
2017-11-14T13:36:32.394Z,19.40
2017-11-14T13:39:00.523Z,18.95
2017-11-14T13:41:28.737Z,19.03
2017-11-14T13:43:56.853Z,21.25
2017-11-14T13:46:24.996Z,18.90
2017-11-14T13:48:53.896Z,21.55
2017-11-14T13:51:23.193Z,22.93
2017-11-14T13:53:52.080Z,21.33
2017-11-14T13:56:21.639Z,22.63
2017-11-14T13:58:50.893Z,22.65
2017-11-14T14:01:19.787Z,27.43
2017-11-14T14:03:47.923Z,22.23
2017-11-14T14:06:16.096Z,26.83
2017-11-14T14:08:44.236Z,28.30
2017-11-14T14:11:12.381Z,23.40
2017-11-14T14:13:40.500Z,25.33
2017-11-14T14:16:08.659Z,19.55
2017-11-14T14:18:36.790Z,18.58
2017-11-14T14:21:05.676Z,19.58
2017-11-14T14:23:34.572Z,23.48
2017-11-14T14:26:02.691Z,24.33
2017-11-14T14:28:30.839Z,19.23
2017-11-14T14:30:58.945Z,22.30
2017-11-14T14:33:27.123Z,22.40
2017-11-14T14:35:55.231Z,21.33
2017-11-14T14:38:23.377Z,21.80
2017-11-14T14:40:51.491Z,20.27
2017-11-14T14:43:19.643Z,22.50
2017-11-14T14:45:47.772Z,19.27
2017-11-14T14:48:15.904Z,18.27
2017-11-14T14:50:44.018Z,22.37
2017-11-14T14:53:12.182Z,18.23
2017-11-14T14:55:40.295Z,21.10
2017-11-14T14:58:09.201Z,23.17
2017-11-14T15:00:37.393Z,21.40
2017-11-14T15:03:05.503Z,23.95
2017-11-14T15:05:33.627Z,20.27
2017-11-14T15:08:01.795Z,23.45
2017-11-14T15:10:29.920Z,20.70
2017-11-14T15:12:58.040Z,24.95
2017-11-14T15:15:26.202Z,23.15
2017-11-14T15:17:55.109Z,22.50
2017-11-14T15:20:23.252Z,25.17
2017-11-14T15:22:52.147Z,27.20
2017-11-14T15:25:21.093Z,25.40
2017-11-14T15:27:49.207Z,25.52
2017-11-14T15:30:18.099Z,27.90
2017-11-14T15:32:46.989Z,25.20
2017-11-14T15:35:15.907Z,26.50
2017-11-14T15:37:44.028Z,24.80
2017-11-14T15:40:12.182Z,28.40
2017-11-14T15:42:40.295Z,27.92
2017-11-14T15:45:09.214Z,26.30
2017-11-14T15:47:37.329Z,26.33
2017-11-14T15:50:05.447Z,31.23
2017-11-14T15:52:33.578Z,27.37
2017-11-14T15:55:01.715Z,26.75
2017-11-14T15:57:29.847Z,26.20
2017-11-14T15:59:58.737Z,25.62
2017-11-14T16:02:27.636Z,30.07
2017-11-14T16:04:55.762Z,30.08
2017-11-14T16:07:23.913Z,28.03
2017-11-14T16:09:52.048Z,32.57
2017-11-14T16:12:20.944Z,27.73
2017-11-14T16:14:49.080Z,26.60
2017-11-14T16:17:17.219Z,28.00
2017-11-14T16:19:45.353Z,22.37
2017-11-14T16:22:14.636Z,26.53
2017-11-14T16:24:42.771Z,24.60
2017-11-14T16:27:10.884Z,21.95
2017-11-14T16:29:39.026Z,25.98
2017-11-14T16:32:07.177Z,21.65
2017-11-14T16:34:35.315Z,24.95
2017-11-14T16:37:03.476Z,23.87
2017-11-14T16:39:31.617Z,26.77
2017-11-14T16:41:59.762Z,28.08
2017-11-14T16:44:27.879Z,32.45
2017-11-14T16:46:56.045Z,29.00
2017-11-14T16:49:24.447Z,28.50
2017-11-14T16:51:52.666Z,32.90
2017-11-14T16:54:20.792Z,36.38
2017-11-14T16:56:48.956Z,28.90
2017-11-14T16:59:17.073Z,29.40
2017-11-14T17:01:45.205Z,29.30
2017-11-14T17:04:13.358Z,28.85
2017-11-14T17:06:41.498Z,30.97
2017-11-14T17:09:09.630Z,29.70
2017-11-14T17:11:38.574Z,29.87
2017-11-14T17:14:06.707Z,27.23
2017-11-14T17:16:35.601Z,27.83
2017-11-14T17:19:04.640Z,28.02
2017-11-14T17:21:34.383Z,26.17
2017-11-14T17:24:02.556Z,26.27
2017-11-14T17:26:31.492Z,28.67
2017-11-14T17:28:59.624Z,25.88
2017-11-14T17:31:27.762Z,32.28
2017-11-14T17:33:55.880Z,25.85
2017-11-14T17:36:24.801Z,28.20
2017-11-14T17:38:57.830Z,29.83
2017-11-14T17:41:25.983Z,27.25
2017-11-14T17:43:54.125Z,29.98
2017-11-14T17:46:22.308Z,30.12
2017-11-14T17:48:50.437Z,27.42
2017-11-14T17:51:19.364Z,28.10
2017-11-14T17:53:47.550Z,30.37
2017-11-14T17:56:15.695Z,32.47
2017-11-14T17:58:44.589Z,29.90
2017-11-14T18:01:12.724Z,26.77
2017-11-14T18:03:40.877Z,30.83
2017-11-14T18:06:08.999Z,26.00
2017-11-14T18:08:37.991Z,31.65
2017-11-14T18:11:06.873Z,25.80
2017-11-14T18:13:35.802Z,26.20
2017-11-14T18:16:04.697Z,27.20
2017-11-14T18:18:32.833Z,26.85
2017-11-14T18:21:01.947Z,29.60
2017-11-14T18:23:30.131Z,35.55
2017-11-14T18:25:58.257Z,26.20
2017-11-14T18:28:27.172Z,26.55
2017-11-14T18:30:55.320Z,30.15
2017-11-14T18:33:23.573Z,31.20
2017-11-14T18:35:51.753Z,32.30
2017-11-14T18:38:19.895Z,34.10
2017-11-14T18:40:48.062Z,29.50
2017-11-14T18:43:16.608Z,30.25
2017-11-14T18:45:45.494Z,29.40
2017-11-14T18:48:14.428Z,41.72
2017-11-14T18:50:42.764Z,41.83
2017-11-14T18:53:11.678Z,34.50
2017-11-14T18:55:39.801Z,32.63
2017-11-14T18:58:08.103Z,32.17
2017-11-14T19:00:36.995Z,34.20
2017-11-14T19:03:05.936Z,27.90
2017-11-14T19:05:34.054Z,31.37
2017-11-14T19:08:02.976Z,30.95
2017-11-14T19:10:31.293Z,31.10
2017-11-14T19:12:59.526Z,28.02
2017-11-14T19:15:27.653Z,24.98
2017-11-14T19:17:55.814Z,26.30
2017-11-14T19:20:23.942Z,30.12
2017-11-14T19:22:54.067Z,28.10
2017-11-14T19:25:22.353Z,25.93
2017-11-14T19:27:50.548Z,26.37
2017-11-14T19:30:20.215Z,29.48
2017-11-14T19:32:48.373Z,25.52
2017-11-14T19:35:16.769Z,25.60
2017-11-14T19:37:44.919Z,26.08
2017-11-14T19:40:13.798Z,25.83
2017-11-14T19:42:42.719Z,25.55
2017-11-14T19:45:10.969Z,26.20
2017-11-14T19:47:40.201Z,45.12
2017-11-14T19:50:09.105Z,30.95
2017-11-14T19:52:37.376Z,32.33
2017-11-14T19:55:06.425Z,29.10
2017-11-14T19:57:34.535Z,33.03
2017-11-14T20:00:02.715Z,33.67
2017-11-14T20:02:30.856Z,31.83
2017-11-14T20:04:59.212Z,35.55
2017-11-14T20:07:27.339Z,36.13
2017-11-14T20:09:55.554Z,32.17
2017-11-14T20:12:23.764Z,30.02
2017-11-14T20:14:52.003Z,32.80
2017-11-14T20:17:20.205Z,38.80
2017-11-14T20:19:49.140Z,33.70
2017-11-14T20:22:17.438Z,35.22
2017-11-14T20:24:46.399Z,42.83
2017-11-14T20:27:14.575Z,34.47
2017-11-14T20:29:42.746Z,37.05
2017-11-14T20:32:10.920Z,36.40
2017-11-14T20:34:39.128Z,37.58
2017-11-14T20:37:07.312Z,36.25
2017-11-14T20:39:35.468Z,36.67
2017-11-14T20:42:03.673Z,34.95
2017-11-14T20:44:31.830Z,36.78
2017-11-14T20:47:00.769Z,38.50
2017-11-14T20:49:28.912Z,37.08
2017-11-14T20:51:57.862Z,34.60
2017-11-14T20:54:26.214Z,39.22
2017-11-14T20:56:54.376Z,35.13
2017-11-14T20:59:22.554Z,32.70
2017-11-14T21:01:50.774Z,38.57
2017-11-14T21:04:18.967Z,35.22
2017-11-14T21:06:47.914Z,35.57
2017-11-14T21:09:16.338Z,32.72
2017-11-14T21:11:44.905Z,41.00
2017-11-14T21:14:14.079Z,34.45
2017-11-14T21:16:42.305Z,36.50
2017-11-14T21:19:10.439Z,33.83
2017-11-14T21:21:38.611Z,34.10
2017-11-14T21:24:06.777Z,43.10
2017-11-14T21:26:34.895Z,36.10
2017-11-14T21:29:03.067Z,44.63
2017-11-14T21:31:31.579Z,43.55
2017-11-14T21:33:59.746Z,36.80
2017-11-14T21:36:27.887Z,36.43
2017-11-14T21:38:56.059Z,39.85
2017-11-14T21:41:24.194Z,33.53
2017-11-14T21:56:52.511Z,37.20
2017-11-14T21:59:20.648Z,39.03
2017-11-14T22:01:49.681Z,29.45
2017-11-14T22:04:18.697Z,32.10
2017-11-14T22:06:46.819Z,36.17
2017-11-14T22:09:14.954Z,35.05
2017-11-14T22:11:43.082Z,35.33
2017-11-14T22:14:11.295Z,34.15
2017-11-14T22:16:39.411Z,29.95
2017-11-14T22:19:07.560Z,28.05
2017-11-14T22:21:36.443Z,31.80
2017-11-14T22:24:05.409Z,33.75
2017-11-14T22:26:33.520Z,35.78
2017-11-14T22:29:02.456Z,35.20
2017-11-14T22:31:30.679Z,35.80
2017-11-14T22:33:59.572Z,39.53
2017-11-14T22:36:28.464Z,35.67
2017-11-14T22:38:56.633Z,34.30
2017-11-14T22:41:25.659Z,35.15
2017-11-14T22:43:53.907Z,31.48
2017-11-14T22:46:22.811Z,38.60
2017-11-14T22:48:51.212Z,33.17
2017-11-14T22:51:19.350Z,32.90
2017-11-14T22:53:48.249Z,37.10
2017-11-14T22:56:17.164Z,35.72
2017-11-14T22:58:45.291Z,33.87
2017-11-14T23:01:14.444Z,32.10
2017-11-14T23:03:42.555Z,37.50
2017-11-14T23:06:11.489Z,35.20
2017-11-14T23:08:39.753Z,37.72
2017-11-14T23:11:08.636Z,34.00
2017-11-14T23:13:36.825Z,36.22
2017-11-14T23:16:04.966Z,37.35
2017-11-14T23:18:33.372Z,33.15
2017-11-14T23:21:01.536Z,35.13
2017-11-14T23:23:30.422Z,32.55
2017-11-14T23:25:58.580Z,27.98
2017-11-14T23:28:27.526Z,32.50
2017-11-14T23:30:55.661Z,27.98
2017-11-14T23:33:24.130Z,30.35
2017-11-14T23:35:53.023Z,35.27
2017-11-14T23:38:21.946Z,34.90
2017-11-14T23:40:50.141Z,30.17
2017-11-14T23:43:18.268Z,33.60
2017-11-14T23:45:46.415Z,36.10
2017-11-14T23:48:14.533Z,31.77
2017-11-14T23:50:42.917Z,32.30
2017-11-14T23:53:11.137Z,38.00
2017-11-14T23:55:40.023Z,37.05
2017-11-14T23:58:08.193Z,35.80
